createdAt,value
2022-08-03T00:00:37.389Z,7.63
2022-08-03T00:03:05.749Z,8.03
2022-08-03T00:05:35.332Z,8.13
2022-08-03T00:08:03.626Z,8.23
2022-08-03T00:10:32.735Z,7.50
2022-08-03T00:13:00.989Z,8.70
2022-08-03T00:15:29.160Z,8.30
2022-08-03T00:17:57.364Z,8.13
2022-08-03T00:20:26.060Z,8.40
2022-08-03T00:22:55.690Z,7.30
2022-08-03T00:25:24.025Z,8.17
2022-08-03T00:27:52.406Z,8.00
2022-08-03T00:30:20.599Z,7.90
2022-08-03T00:32:49.543Z,7.63
2022-08-03T00:35:36.506Z,7.63
2022-08-03T00:38:07.831Z,7.57
2022-08-03T00:40:36.577Z,7.70
2022-08-03T00:43:06.624Z,7.73
2022-08-03T00:45:36.899Z,8.43
2022-08-03T00:48:07.030Z,7.70
2022-08-03T00:50:55.540Z,8.33
2022-08-03T00:53:25.899Z,7.97
2022-08-03T00:55:54.301Z,8.43
2022-08-03T00:58:22.590Z,7.43
2022-08-03T01:00:51.377Z,8.43
2022-08-03T01:03:19.617Z,7.60
2022-08-03T01:06:01.477Z,8.20
2022-08-03T01:08:41.934Z,8.60
2022-08-03T01:11:17.822Z,8.40
2022-08-03T01:14:03.881Z,9.17
2022-08-03T01:16:52.010Z,8.93
2022-08-03T01:19:42.778Z,9.27
2022-08-03T01:22:38.378Z,9.53
2022-08-03T01:25:19.332Z,10.00
2022-08-03T01:28:14.574Z,9.40
2022-08-03T01:30:46.670Z,9.87
2022-08-03T01:33:20.147Z,9.60
2022-08-03T01:35:55.466Z,10.10
2022-08-03T01:38:28.422Z,10.33
2022-08-03T01:40:57.863Z,9.10
2022-08-03T01:43:55.061Z,9.03
2022-08-03T01:46:20.665Z,9.33
2022-08-03T01:48:50.287Z,9.17
2022-08-03T01:51:20.621Z,9.00
2022-08-03T01:53:51.175Z,8.97
2022-08-03T01:56:21.338Z,9.20
2022-08-03T01:58:51.830Z,9.47
2022-08-03T02:01:23.553Z,9.50
2022-08-03T02:04:00.658Z,9.87
2022-08-03T02:07:01.491Z,9.90
2022-08-03T02:09:23.209Z,9.77
2022-08-03T02:11:52.885Z,10.10
2022-08-03T02:14:23.370Z,10.33
2022-08-03T02:16:54.004Z,9.73
2022-08-03T02:19:23.428Z,9.83
2022-08-03T02:21:56.849Z,10.43
2022-08-03T02:24:30.193Z,9.17
2022-08-03T02:26:59.336Z,9.50
2022-08-03T02:29:39.231Z,9.03
2022-08-03T02:32:15.493Z,9.23
2022-08-03T02:34:48.514Z,9.13
2022-08-03T02:37:20.762Z,9.67
2022-08-03T02:39:52.109Z,9.73
2022-08-03T02:42:24.474Z,9.80
2022-08-03T02:44:56.444Z,9.43
2022-08-03T02:47:29.093Z,9.50
2022-08-03T02:50:18.717Z,9.20
2022-08-03T02:52:49.051Z,9.00
2022-08-03T02:55:19.389Z,9.23
2022-08-03T02:57:49.290Z,9.20
2022-08-03T03:00:27.217Z,9.23
2022-08-03T03:02:59.576Z,9.77
2022-08-03T03:05:54.567Z,10.27
2022-08-03T03:08:26.062Z,9.80
2022-08-03T03:11:00.389Z,9.93
2022-08-03T03:13:29.743Z,10.70
2022-08-03T03:16:01.577Z,10.60
2022-08-03T03:18:32.931Z,9.93
2022-08-03T03:21:02.685Z,10.10
2022-08-03T03:23:34.042Z,9.90
2022-08-03T03:26:03.018Z,10.23
2022-08-03T03:28:32.848Z,9.77
2022-08-03T03:31:01.806Z,10.70
2022-08-03T03:33:31.702Z,10.13
2022-08-03T03:36:00.464Z,10.33
2022-08-03T03:38:29.033Z,9.40
2022-08-03T03:40:57.523Z,9.97
2022-08-03T03:43:26.139Z,10.33
2022-08-03T03:45:55.746Z,10.13
2022-08-03T03:48:25.240Z,10.30
2022-08-03T03:50:57.213Z,10.10
2022-08-03T03:53:25.978Z,10.97
2022-08-03T03:56:02.208Z,10.90
2022-08-03T03:58:32.421Z,10.67
2022-08-03T04:01:01.319Z,11.03
2022-08-03T04:03:29.573Z,11.57
2022-08-03T04:06:17.146Z,11.00
2022-08-03T04:09:15.195Z,11.50
2022-08-03T04:11:46.864Z,11.37
2022-08-03T04:14:20.055Z,12.93
2022-08-03T04:16:52.136Z,13.50
2022-08-03T04:19:27.695Z,13.80
2022-08-03T04:22:01.248Z,13.07
2022-08-03T04:24:35.426Z,12.50
2022-08-03T04:27:07.931Z,13.90
2022-08-03T04:29:46.454Z,14.47
2022-08-03T04:32:18.590Z,15.40
2022-08-03T04:34:47.595Z,14.87
2022-08-03T04:37:25.997Z,15.43
2022-08-03T04:39:56.979Z,14.57
2022-08-03T04:42:26.913Z,13.53
2022-08-03T04:45:01.007Z,13.47
2022-08-03T04:47:31.093Z,14.77
2022-08-03T04:49:59.450Z,14.10
2022-08-03T04:52:29.315Z,13.73
2022-08-03T04:54:57.803Z,14.30
2022-08-03T04:57:25.998Z,14.17
2022-08-03T05:00:02.072Z,13.37
2022-08-03T05:02:31.697Z,13.63
2022-08-03T05:05:00.066Z,13.80
2022-08-03T05:07:35.695Z,14.90
2022-08-03T05:10:14.991Z,15.07
2022-08-03T05:12:45.988Z,15.07
2022-08-03T05:15:14.321Z,14.93
2022-08-03T05:17:42.836Z,14.30
2022-08-03T05:20:12.739Z,14.27
2022-08-03T05:22:42.510Z,13.57
2022-08-03T05:25:17.312Z,14.27
2022-08-03T05:27:49.001Z,14.73
2022-08-03T05:30:32.600Z,15.17
2022-08-03T05:33:03.839Z,13.73
2022-08-03T05:35:57.883Z,14.10
2022-08-03T05:38:28.229Z,14.30
2022-08-03T05:41:20.940Z,14.30
2022-08-03T05:43:45.334Z,14.13
2022-08-03T05:46:13.606Z,14.83
2022-08-03T05:48:42.453Z,14.00
2022-08-03T05:51:12.375Z,14.90
2022-08-03T05:53:42.856Z,14.53
2022-08-03T05:56:15.353Z,14.97
2022-08-03T05:58:48.107Z,15.37
2022-08-03T06:01:16.910Z,14.70
2022-08-03T06:03:45.339Z,14.47
2022-08-03T06:06:13.670Z,14.93
2022-08-03T06:08:44.119Z,14.73
2022-08-03T06:11:12.659Z,13.47
2022-08-03T06:13:41.230Z,14.40
2022-08-03T06:16:10.397Z,14.33
2022-08-03T06:18:40.492Z,13.47
2022-08-03T06:21:15.654Z,13.77
2022-08-03T06:23:54.383Z,12.97
2022-08-03T06:26:25.440Z,12.93
2022-08-03T06:28:55.031Z,13.03
2022-08-03T06:31:33.372Z,14.10
2022-08-03T06:34:33.976Z,13.80
2022-08-03T06:36:58.519Z,13.87
2022-08-03T06:39:31.523Z,13.13
2022-08-03T06:41:59.814Z,13.50
2022-08-03T06:44:28.071Z,13.27
2022-08-03T06:46:56.432Z,13.40
2022-08-03T06:49:25.110Z,14.17
2022-08-03T06:52:05.871Z,12.43
2022-08-03T06:54:37.008Z,13.70
2022-08-03T06:57:06.279Z,12.13
2022-08-03T07:00:09.402Z,13.07
2022-08-03T07:02:23.082Z,13.17
2022-08-03T07:04:52.149Z,12.40
2022-08-03T07:07:21.167Z,11.83
2022-08-03T07:09:56.908Z,11.77
2022-08-03T07:12:27.773Z,11.43
2022-08-03T07:15:00.632Z,10.43
2022-08-03T07:17:30.869Z,11.20
2022-08-03T07:19:59.294Z,10.60
2022-08-03T07:22:28.344Z,11.33
2022-08-03T07:24:58.763Z,9.63
2022-08-03T07:27:28.631Z,10.03
2022-08-03T07:29:57.882Z,8.53
2022-08-03T07:32:26.381Z,8.77
2022-08-03T07:34:58.477Z,8.07
2022-08-03T07:37:28.374Z,8.55
2022-08-03T07:40:00.687Z,8.60
2022-08-03T07:42:29.262Z,7.63
2022-08-03T07:44:57.725Z,7.97
2022-08-03T07:47:35.590Z,7.22
2022-08-03T07:50:05.663Z,7.28
2022-08-03T07:52:49.905Z,6.97
2022-08-03T07:55:21.261Z,6.13
2022-08-03T07:57:59.965Z,6.00
2022-08-03T08:00:28.164Z,5.28
2022-08-03T08:02:56.409Z,4.68
2022-08-03T08:05:24.717Z,4.60
2022-08-03T08:07:53.138Z,4.00
2022-08-03T08:10:23.246Z,4.28
2022-08-03T08:12:51.507Z,4.28
2022-08-03T08:15:19.777Z,4.88
2022-08-03T08:17:50.405Z,4.70
2022-08-03T08:20:27.759Z,4.50
2022-08-03T08:22:57.929Z,3.88
2022-08-03T08:25:28.093Z,4.20
2022-08-03T08:28:31.371Z,2.95
2022-08-03T08:30:45.001Z,3.17
2022-08-03T08:33:22.412Z,3.40
2022-08-03T08:35:53.123Z,3.25
2022-08-03T08:38:21.416Z,2.80
2022-08-03T08:40:51.733Z,2.80
2022-08-03T08:43:19.924Z,2.80
2022-08-03T08:45:50.078Z,2.70
2022-08-03T08:48:23.050Z,2.42
2022-08-03T08:50:55.232Z,2.30
2022-08-03T08:53:27.241Z,2.53
2022-08-03T08:56:01.317Z,2.20
2022-08-03T08:58:32.582Z,2.40
2022-08-03T09:01:00.889Z,2.58
2022-08-03T09:03:30.599Z,2.70
2022-08-03T09:06:02.282Z,2.38
2022-08-03T09:08:31.228Z,2.10
2022-08-03T09:11:01.007Z,1.95
2022-08-03T09:13:30.524Z,1.92
2022-08-03T09:16:12.995Z,1.70
2022-08-03T09:18:42.085Z,1.52
2022-08-03T09:21:31.749Z,1.65
2022-08-03T09:24:03.776Z,1.90
2022-08-03T09:26:37.106Z,2.00
2022-08-03T09:29:13.165Z,2.05
2022-08-03T09:31:45.076Z,2.08
2022-08-03T09:34:15.060Z,2.30
2022-08-03T09:36:45.657Z,2.08
2022-08-03T09:39:15.504Z,2.33
2022-08-03T09:41:48.187Z,1.83
2022-08-03T09:44:25.483Z,2.15
2022-08-03T09:46:56.969Z,1.90
2022-08-03T09:49:25.974Z,1.98
2022-08-03T09:52:31.766Z,2.30
2022-08-03T09:54:44.114Z,2.30
2022-08-03T09:57:23.823Z,2.10
2022-08-03T10:00:02.929Z,2.67
2022-08-03T10:02:41.342Z,1.90
2022-08-03T10:05:17.496Z,2.30
2022-08-03T10:07:49.658Z,1.90
2022-08-03T10:10:31.278Z,1.90
2022-08-03T10:13:02.235Z,2.10
2022-08-03T10:16:22.645Z,1.70
2022-08-03T10:18:18.955Z,2.28
2022-08-03T10:20:52.706Z,1.98
2022-08-03T10:23:22.489Z,2.00
2022-08-03T10:25:54.392Z,1.92
2022-08-03T10:28:25.451Z,2.00
2022-08-03T10:30:55.546Z,1.90
2022-08-03T10:33:49.729Z,1.90
2022-08-03T10:36:16.428Z,1.83
2022-08-03T10:38:47.191Z,1.60
2022-08-03T10:41:17.106Z,2.33
2022-08-03T10:43:54.035Z,1.58
2022-08-03T10:46:22.922Z,1.70
2022-08-03T10:48:53.905Z,1.80
2022-08-03T10:51:22.768Z,1.80
2022-08-03T10:53:54.329Z,2.03
2022-08-03T10:57:13.508Z,1.70
2022-08-03T11:00:03.291Z,1.80
2022-08-03T11:03:06.817Z,2.10
2022-08-03T11:05:37.311Z,1.90
2022-08-03T11:08:26.613Z,1.85
2022-08-03T11:10:56.752Z,2.00
2022-08-03T11:13:28.234Z,1.80
2022-08-03T11:16:03.003Z,2.08
2022-08-03T11:18:33.118Z,2.00
2022-08-03T11:21:01.984Z,1.88
2022-08-03T11:24:03.074Z,2.10
2022-08-03T11:26:33.456Z,1.80
2022-08-03T11:29:28.448Z,2.00
2022-08-03T11:31:58.008Z,1.90
2022-08-03T11:34:26.250Z,2.13
2022-08-03T11:37:20.523Z,1.92
2022-08-03T11:39:51.875Z,2.00
2022-08-03T11:42:44.095Z,1.83
2022-08-03T11:45:12.733Z,1.98
2022-08-03T11:47:50.489Z,2.13
2022-08-03T11:50:37.494Z,2.20
2022-08-03T11:53:10.157Z,2.53
2022-08-03T11:55:42.008Z,2.00
2022-08-03T11:59:01.609Z,2.25
2022-08-03T12:01:06.143Z,2.28
2022-08-03T12:03:36.619Z,2.00
2022-08-03T12:06:11.201Z,2.20
2022-08-03T12:08:39.865Z,2.00
2022-08-03T12:11:10.959Z,2.20
2022-08-03T12:14:36.754Z,2.10
2022-08-03T12:16:29.745Z,1.90
2022-08-03T12:19:01.812Z,2.00
2022-08-03T12:21:30.737Z,2.30
2022-08-03T12:24:00.780Z,2.47
2022-08-03T12:26:30.617Z,2.55
2022-08-03T12:28:59.339Z,2.15
2022-08-03T12:31:27.599Z,2.30
2022-08-03T12:34:03.052Z,2.58
2022-08-03T12:36:32.907Z,2.40
2022-08-03T12:39:02.776Z,2.05
2022-08-03T12:41:34.102Z,2.05
2022-08-03T12:44:04.176Z,2.30
2022-08-03T12:46:34.305Z,2.83
2022-08-03T12:49:06.817Z,2.80
2022-08-03T12:51:37.142Z,2.67
2022-08-03T12:54:06.502Z,2.78
2022-08-03T12:56:35.068Z,2.60
2022-08-03T12:59:34.936Z,2.70
2022-08-03T13:02:09.763Z,2.70
2022-08-03T13:04:41.918Z,2.70
2022-08-03T13:07:12.861Z,2.75
2022-08-03T13:09:44.968Z,2.63
2022-08-03T13:12:15.013Z,2.72
2022-08-03T13:14:43.954Z,2.70
2022-08-03T13:17:12.446Z,3.92
2022-08-03T13:19:42.393Z,2.40
2022-08-03T13:22:15.169Z,2.50
2022-08-03T13:24:44.271Z,3.85
2022-08-03T13:28:01.838Z,2.60
2022-08-03T13:30:01.999Z,2.67
2022-08-03T13:32:30.353Z,2.33
2022-08-03T13:35:00.083Z,2.97
2022-08-03T13:37:28.305Z,2.70
2022-08-03T13:39:59.042Z,2.60
2022-08-03T13:42:30.691Z,2.85
2022-08-03T13:44:59.591Z,2.78
2022-08-03T13:47:27.897Z,2.80
2022-08-03T13:50:01.675Z,3.22
2022-08-03T13:52:34.397Z,2.53
2022-08-03T13:55:03.224Z,2.53
2022-08-03T13:58:02.872Z,2.60
2022-08-03T14:00:27.344Z,2.60
2022-08-03T14:03:14.928Z,2.58
2022-08-03T14:05:44.064Z,2.40
2022-08-03T14:08:14.034Z,2.50
2022-08-03T14:10:47.790Z,2.30
2022-08-03T14:13:27.775Z,2.65
2022-08-03T14:16:03.930Z,2.42
2022-08-03T14:18:33.925Z,2.42
2022-08-03T14:21:06.962Z,2.90
2022-08-03T14:23:40.017Z,2.72
2022-08-03T14:26:09.471Z,2.80
2022-08-03T14:28:37.977Z,2.45
2022-08-03T14:32:10.193Z,2.63
2022-08-03T14:33:54.810Z,2.63
2022-08-03T14:36:23.116Z,2.70
2022-08-03T14:38:52.738Z,2.75
2022-08-03T14:41:20.993Z,2.40
2022-08-03T14:44:02.190Z,2.50
2022-08-03T14:46:31.486Z,2.30
2022-08-03T14:50:34.818Z,2.45
2022-08-03T14:51:51.475Z,2.50
2022-08-03T14:54:23.665Z,3.15
2022-08-03T14:56:52.098Z,2.60
2022-08-03T14:59:20.406Z,2.80
2022-08-03T15:02:04.925Z,2.85
2022-08-03T15:04:36.138Z,2.80
2022-08-03T15:07:04.363Z,2.90
2022-08-03T15:09:34.722Z,2.70
2022-08-03T15:12:03.094Z,2.95
2022-08-03T15:14:32.344Z,2.80
2022-08-03T15:17:03.168Z,2.25
2022-08-03T15:20:03.302Z,2.30
2022-08-03T15:22:20.603Z,2.72
2022-08-03T15:24:56.171Z,2.88
2022-08-03T15:27:24.432Z,2.65
2022-08-03T15:30:04.843Z,2.50
2022-08-03T15:32:37.889Z,2.70
2022-08-03T15:35:06.656Z,2.33
2022-08-03T15:37:34.922Z,2.67
2022-08-03T15:40:05.610Z,2.90
2022-08-03T15:42:34.834Z,2.60
2022-08-03T15:45:03.378Z,2.53
2022-08-03T15:47:31.571Z,2.67
2022-08-03T15:49:59.802Z,2.60
2022-08-03T15:52:28.072Z,2.60
2022-08-03T15:54:56.298Z,2.45
2022-08-03T15:57:26.045Z,2.80
2022-08-03T15:59:54.200Z,2.58
2022-08-03T16:02:22.570Z,2.55
2022-08-03T16:04:50.754Z,2.67
2022-08-03T16:07:40.155Z,2.40
2022-08-03T16:10:09.019Z,2.38
2022-08-03T16:12:38.714Z,2.22
2022-08-03T16:15:08.546Z,2.40
2022-08-03T16:17:36.759Z,2.85
2022-08-03T16:20:12.625Z,2.65
2022-08-03T16:22:53.717Z,3.30
2022-08-03T16:25:22.017Z,2.63
2022-08-03T16:28:00.303Z,2.60
2022-08-03T16:30:35.864Z,2.40
2022-08-03T16:33:04.473Z,2.72
2022-08-03T16:35:32.863Z,2.40
2022-08-03T16:38:01.004Z,2.58
2022-08-03T16:40:29.276Z,2.63
2022-08-03T16:42:58.929Z,2.50
2022-08-03T16:45:27.362Z,2.80
2022-08-03T16:48:05.279Z,2.58
2022-08-03T16:50:34.864Z,2.50
2022-08-03T16:53:06.371Z,3.10
2022-08-03T16:55:51.758Z,3.50
2022-08-03T16:58:34.335Z,2.78
2022-08-03T17:01:21.862Z,2.90
2022-08-03T17:04:01.532Z,3.20
2022-08-03T17:06:34.241Z,3.20
2022-08-03T17:09:03.946Z,2.80
2022-08-03T17:11:46.394Z,2.67
2022-08-03T17:14:21.558Z,2.88
2022-08-03T17:16:52.449Z,2.75
2022-08-03T17:19:26.536Z,3.13
2022-08-03T17:22:02.129Z,3.20
2022-08-03T17:24:34.876Z,3.10
2022-08-03T17:27:08.669Z,3.42
2022-08-03T17:29:45.203Z,3.20
2022-08-03T17:32:18.400Z,3.08
2022-08-03T17:34:50.290Z,3.20
2022-08-03T17:37:50.115Z,3.63
2022-08-03T17:40:11.563Z,5.63
2022-08-03T17:42:50.516Z,5.60
2022-08-03T17:45:21.412Z,3.50
2022-08-03T17:47:56.959Z,3.83
2022-08-03T17:50:33.661Z,3.85
2022-08-03T17:53:07.819Z,4.28
2022-08-03T17:55:56.319Z,4.03
2022-08-03T17:58:41.648Z,3.90
2022-08-03T18:02:00.441Z,3.92
2022-08-03T18:04:29.776Z,3.80
2022-08-03T18:07:11.635Z,3.47
2022-08-03T18:10:03.837Z,3.58
2022-08-03T18:12:51.900Z,3.60
2022-08-03T18:15:28.694Z,3.30
2022-08-03T18:18:03.477Z,3.78
2022-08-03T18:20:42.130Z,3.90
2022-08-03T18:23:25.520Z,3.83
2022-08-03T18:26:02.175Z,4.03
2022-08-03T18:28:34.874Z,4.00
2022-08-03T18:31:05.789Z,3.80
2022-08-03T18:34:18.879Z,4.45
2022-08-03T18:36:30.257Z,4.35
2022-08-03T18:39:00.446Z,4.45
2022-08-03T18:41:34.031Z,5.13
2022-08-03T18:44:07.605Z,5.00
2022-08-03T18:46:48.243Z,5.28
2022-08-03T18:49:29.022Z,5.57
2022-08-03T18:52:04.029Z,5.97
2022-08-03T18:54:46.051Z,5.65
2022-08-03T19:00:42.665Z,5.93
2022-08-03T19:03:20.577Z,6.30
2022-08-03T19:06:02.692Z,6.30
2022-08-03T19:08:45.268Z,6.15
2022-08-03T19:11:28.032Z,6.63
2022-08-03T19:13:59.592Z,7.45
2022-08-03T19:16:32.846Z,7.38
2022-08-03T19:19:03.102Z,7.63
2022-08-03T19:21:35.952Z,6.80
2022-08-03T19:24:10.241Z,6.45
2022-08-03T19:29:58.580Z,5.90
2022-08-03T19:32:29.966Z,6.80
2022-08-03T19:35:46.992Z,7.10
2022-08-03T19:38:11.024Z,6.95
2022-08-03T19:40:44.762Z,6.90
2022-08-03T19:43:23.597Z,7.38
2022-08-03T19:46:06.878Z,9.63
2022-08-03T19:48:37.180Z,10.13
2022-08-03T19:51:12.375Z,10.98
2022-08-03T19:53:44.932Z,11.60
2022-08-03T19:56:16.384Z,11.95
2022-08-03T19:58:44.691Z,11.73
2022-08-03T20:01:19.264Z,12.07
2022-08-03T20:04:01.302Z,10.93
2022-08-03T20:06:29.924Z,10.73
2022-08-03T20:09:01.509Z,10.25
2022-08-03T20:11:31.270Z,9.77
2022-08-03T20:14:20.557Z,10.13
2022-08-03T20:16:54.785Z,9.30
2022-08-03T20:19:24.579Z,9.63
2022-08-03T20:22:01.207Z,9.07
2022-08-03T20:24:35.906Z,8.60
2022-08-03T20:27:07.956Z,9.07
2022-08-03T20:30:06.400Z,8.82
2022-08-03T20:32:29.813Z,8.63
2022-08-03T20:35:01.129Z,9.30
2022-08-03T20:37:30.477Z,9.23
2022-08-03T20:40:00.740Z,9.25
2022-08-03T20:42:29.219Z,9.60
2022-08-03T20:45:04.383Z,9.80
2022-08-03T20:47:36.109Z,8.70
2022-08-03T20:50:07.575Z,9.30
2022-08-03T20:52:49.257Z,9.20
2022-08-03T20:55:20.245Z,7.70
2022-08-03T20:58:08.455Z,7.78
2022-08-03T21:00:36.862Z,8.27
2022-08-03T21:03:06.750Z,7.60
2022-08-03T21:05:51.110Z,7.97
2022-08-03T21:08:26.336Z,8.30
2022-08-03T21:10:59.077Z,7.70
2022-08-03T21:13:10.223Z,6.28
2022-08-03T21:13:35.008Z,7.57
2022-08-03T21:16:13.447Z,8.00
2022-08-03T21:18:45.936Z,7.43
2022-08-03T21:21:16.658Z,7.80
2022-08-03T21:23:48.971Z,8.27
2022-08-03T21:26:19.784Z,7.53
2022-08-03T21:28:49.045Z,8.00
2022-08-03T21:31:24.395Z,8.00
2022-08-03T21:33:56.824Z,7.93
2022-08-03T21:36:26.880Z,7.37
2022-08-03T21:38:57.425Z,7.93
2022-08-03T21:41:28.488Z,8.03
2022-08-03T21:43:57.077Z,7.93
2022-08-03T21:46:27.065Z,7.50
2022-08-03T21:50:05.846Z,7.47
2022-08-03T21:51:46.500Z,7.77
2022-08-03T21:54:14.934Z,7.23
2022-08-03T21:56:48.231Z,8.47
2022-08-03T21:59:19.075Z,8.57
2022-08-03T22:01:51.355Z,7.73
2022-08-03T22:04:50.241Z,7.33
2022-08-03T22:07:12.214Z,8.63
2022-08-03T22:09:40.810Z,8.57
2022-08-03T22:12:23.882Z,8.97
2022-08-03T22:15:00.302Z,8.57
2022-08-03T22:17:55.417Z,8.97
2022-08-03T22:20:19.846Z,9.03
2022-08-03T22:22:55.505Z,8.87
2022-08-03T22:25:29.907Z,8.27
2022-08-03T22:28:02.059Z,8.90
2022-08-03T22:30:31.634Z,8.63
2022-08-03T22:33:01.059Z,9.50
2022-08-03T22:35:29.397Z,9.13
2022-08-03T22:37:59.828Z,8.97
2022-08-03T22:40:28.762Z,9.83
2022-08-03T22:42:59.197Z,9.07
2022-08-03T22:46:06.113Z,9.93
2022-08-03T22:48:17.957Z,10.03
2022-08-03T22:50:47.321Z,10.13
2022-08-03T22:53:19.958Z,9.80
2022-08-03T22:55:49.765Z,10.03
2022-08-03T22:58:20.949Z,9.10
2022-08-03T23:00:59.295Z,10.10
2022-08-03T23:04:01.121Z,9.83
2022-08-03T23:06:22.680Z,10.23
2022-08-03T23:08:52.038Z,10.77
2022-08-03T23:11:22.717Z,9.90
2022-08-03T23:13:55.129Z,10.40
2022-08-03T23:16:29.589Z,10.50
2022-08-03T23:19:13.157Z,10.93
2022-08-03T23:21:53.872Z,10.50
2022-08-03T23:24:33.815Z,9.80
2022-08-03T23:27:04.677Z,10.70
2022-08-03T23:29:35.748Z,10.30
2022-08-03T23:32:04.935Z,11.13
2022-08-03T23:34:51.443Z,10.37
2022-08-03T23:37:21.010Z,10.57
2022-08-03T23:39:50.245Z,10.97
2022-08-03T23:42:20.412Z,11.27
2022-08-03T23:44:56.668Z,10.23
2022-08-03T23:47:46.698Z,10.23
2022-08-03T23:50:16.128Z,9.90
2022-08-03T23:52:56.911Z,9.77
2022-08-03T23:55:44.107Z,9.73
2022-08-03T23:58:23.236Z,9.13
